Time;durP1;ratioP1;P1;durP2;ratioP2;P2;SDS_P1;SDS_P2;PMS_P1;PMS_P2;Temp;Humidity;BMP_temperature;BMP_pressure;BME280_temperature;BME280_humidity;BME280_pressure;Samples;Min_cycle;Max_cycle;Signal;HPM_P1;HPM_P2
2023/02/10 00:03:38;;;;;;;0.00;0.00;;;;;;;-145.06;100.00;53813.41;10441664;28;20033;-80
2023/02/10 00:08:39;;;;;;;0.00;0.00;;;;;;;-145.06;100.00;53829.59;10457453;28;20549;-80
2023/02/10 00:13:39;;;;;;;0.00;0.00;;;;;;;-145.06;100.00;53839.72;10442418;28;20021;-80
2023/02/10 00:18:40;;;;;;;0.00;0.00;;;;;;;-145.06;100.00;53795.19;10458723;28;20045;-80
2023/02/10 00:23:42;;;;;;;0.00;0.00;;;;;;;-145.06;100.00;53835.69;10449621;28;20041;-80
2023/02/10 00:28:43;;;;;;;0.00;0.00;;;;;;;-145.06;100.00;53835.69;10448912;28;20037;-79
2023/02/10 00:33:43;;;;;;;0.00;0.00;;;;;;;-145.06;100.00;53815.44;10446703;28;20025;-80
2023/02/10 00:38:44;;;;;;;0.00;0.00;;;;;;;-145.06;100.00;53815.44;10467320;28;20048;-79
2023/02/10 00:43:44;;;;;;;0.00;0.00;;;;;;;-145.06;100.00;53787.06;10446731;28;20032;-80
2023/02/10 00:48:45;;;;;;;0.00;0.00;;;;;;;-145.06;100.00;53833.66;10466426;28;20021;-78
2023/02/10 00:53:49;;;;;;;0.00;0.00;;;;;;;-145.06;100.00;53843.78;10448296;28;20105;-80
2023/02/10 00:58:50;;;;;;;0.00;0.00;;;;;;;-145.06;100.00;53823.53;10444278;28;20025;-80
2023/02/10 01:03:50;;;;;;;0.00;0.00;;;;;;;-145.06;100.00;53827.59;10466419;28;20112;-79
2023/02/10 01:08:50;;;;;;;0.08;0.08;;;;;;;-145.06;100.00;53845.81;10464867;28;20155;-80
2023/02/10 01:13:50;;;;;;;0.00;0.00;;;;;;;-145.06;100.00;53823.53;10446379;28;20043;-80
2023/02/10 01:18:51;;;;;;;0.00;0.00;;;;;;;-145.06;100.00;53872.13;10465805;28;20276;-80
2023/02/10 01:23:51;;;;;;;0.00;0.00;;;;;;;-145.06;100.00;53835.69;10460257;28;20484;-80
2023/02/10 01:28:52;;;;;;;0.00;0.00;;;;;;;-145.06;100.00;53839.72;10446835;28;20060;-80
2023/02/10 01:33:54;;;;;;;0.00;0.00;;;;;;;-145.06;100.00;53827.59;10445094;28;20092;-80
2023/02/10 01:38:54;;;;;;;0.00;0.00;;;;;;;-145.06;100.00;53797.22;10443239;28;20781;-80
2023/02/10 01:44:26;;;;;;;0.00;0.00;;;;;;;-145.06;100.00;53815.44;10464217;28;20028;-80
2023/02/10 01:49:30;;;;;;;0.00;0.00;;;;;;;-145.06;100.00;53835.69;10443470;28;20029;-80
2023/02/10 01:54:39;;;;;;;0.00;0.00;;;;;;;-145.06;100.00;53855.94;10463913;28;20120;-80
2023/02/10 01:59:42;;;;;;;0.00;0.00;;;;;;;-145.06;100.00;53843.78;10462305;28;20040;-80
2023/02/10 02:04:50;;;;;;;0.00;0.00;;;;;;;-145.06;100.00;53841.75;10443682;28;20403;-80
2023/02/10 02:09:53;;;;;;;0.00;0.00;;;;;;;-145.06;100.00;53825.56;10444980;28;20532;-80
2023/02/10 02:15:15;;;;;;;0.00;0.00;;;;;;;-145.06;100.00;53847.84;10460172;28;20033;-80
2023/02/10 02:20:40;;;;;;;0.00;0.00;;;;;;;-145.06;100.00;53843.78;10442349;28;20052;-79
2023/02/10 02:26:22;;;;;;;0.00;0.00;;;;;;;-145.06;100.00;53827.59;10463332;28;20090;-79
2023/02/10 02:31:40;;;;;;;0.00;0.00;;;;;;;-145.06;100.00;53866.06;10460602;28;20033;-80
2023/02/10 02:36:49;;;;;;;0.00;0.00;;;;;;;-145.06;100.00;53805.31;10476886;28;20036;-78
2023/02/10 02:42:12;;;;;;;0.00;0.00;;;;;;;-145.06;100.00;53853.91;10455843;28;20043;-78
2023/02/10 02:47:37;;;;;;;0.00;0.00;;;;;;;-145.06;100.00;53805.31;10459728;28;20048;-80
2023/02/10 02:52:58;;;;;;;0.10;0.10;;;;;;;-145.06;100.00;53851.88;10454200;28;20061;-80
2023/02/10 02:58:08;;;;;;;0.00;0.00;;;;;;;-145.06;100.00;53864.03;10461552;28;20047;-79
2023/02/10 03:03:09;;;;;;;0.00;0.00;;;;;;;-145.06;100.00;53845.81;10461087;28;20067;-80
2023/02/10 03:08:10;;;;;;;0.00;0.00;;;;;;;-145.06;100.00;53847.84;10456536;28;20364;-80
2023/02/10 03:13:10;;;;;;;0.00;0.00;;;;;;;-145.06;100.00;53851.88;10443290;28;20168;-80
2023/02/10 03:18:10;;;;;;;0.00;0.00;;;;;;;-145.06;100.00;53853.91;10461071;28;20029;-80
2023/02/10 03:23:11;;;;;;;0.00;0.00;;;;;;;-145.06;100.00;53884.28;10457621;28;20044;-80
2023/02/10 03:28:11;;;;;;;0.00;0.00;;;;;;;-145.06;100.00;53839.72;10462069;28;20511;-80
2023/02/10 03:33:12;;;;;;;0.10;0.10;;;;;;;-145.06;100.00;53868.09;10442048;28;20099;-80
2023/02/10 03:38:14;;;;;;;0.00;0.00;;;;;;;-145.06;100.00;53843.78;10459922;28;20025;-79
2023/02/10 03:43:14;;;;;;;0.00;0.00;;;;;;;-145.06;100.00;53866.06;10461612;28;20036;-80
2023/02/10 03:48:15;;;;;;;0.00;0.00;;;;;;;-145.06;100.00;53864.03;10436354;28;20028;-80
2023/02/10 03:53:16;;;;;;;0.00;0.00;;;;;;;-145.06;100.00;53862.00;10460431;28;20029;-80
2023/02/10 03:58:16;;;;;;;0.00;0.00;;;;;;;-145.06;100.00;53855.94;10464953;28;20040;-80
2023/02/10 04:03:17;;;;;;;0.00;0.00;;;;;;;-145.06;100.00;53868.09;10464207;28;20029;-80
2023/02/10 04:08:17;;;;;;;0.00;0.00;;;;;;;-145.06;100.00;53823.53;10468097;28;20068;-80
2023/02/10 04:13:17;;;;;;;0.00;0.00;;;;;;;-145.06;100.00;53855.94;10446655;28;20215;-79
2023/02/10 04:18:18;;;;;;;0.00;0.00;;;;;;;-145.06;100.00;53851.88;10467528;28;20315;-80
2023/02/10 04:23:18;;;;;;;0.00;0.00;;;;;;;-145.06;100.00;53837.72;10449390;28;20278;-80
2023/02/10 04:28:19;;;;;;;0.00;0.00;;;;;;;-145.06;100.00;53817.47;10443137;28;20029;-79
2023/02/10 04:33:19;;;;;;;0.00;0.00;;;;;;;-145.06;100.00;53853.91;10448544;28;20078;-79
2023/02/10 04:38:20;;;;;;;0.10;0.10;;;;;;;-145.06;100.00;53797.22;10465295;28;20434;-80
2023/02/10 04:43:21;;;;;;;0.00;0.00;;;;;;;-145.06;100.00;53831.63;10444874;28;20047;-79
2023/02/10 04:48:21;;;;;;;0.00;0.00;;;;;;;-145.06;100.00;53884.28;10467204;28;20101;-79
2023/02/10 04:53:21;;;;;;;0.00;0.00;;;;;;;-145.06;100.00;53855.94;10460808;28;20059;-79
2023/02/10 04:58:22;;;;;;;0.00;0.00;;;;;;;-145.06;100.00;53843.78;10466782;28;20029;-80
2023/02/10 05:03:23;;;;;;;0.00;0.00;;;;;;;-145.06;100.00;53843.78;10466458;28;20029;-79
2023/02/10 05:08:23;;;;;;;0.00;0.00;;;;;;;-145.06;100.00;53851.88;10445629;28;20137;-80
2023/02/10 05:13:23;;;;;;;0.00;0.00;;;;;;;-145.06;100.00;53809.34;10447611;28;20058;-80
2023/02/10 05:18:24;;;;;;;0.00;0.00;;;;;;;-145.06;100.00;53841.75;10465914;28;20275;-79
2023/02/10 05:23:25;;;;;;;0.08;0.08;;;;;;;-145.06;100.00;53857.97;10463288;28;20036;-80
2023/02/10 05:28:25;;;;;;;0.00;0.00;;;;;;;-145.06;100.00;53839.72;10448473;28;20124;-80
2023/02/10 05:33:26;;;;;;;0.05;0.05;;;;;;;-145.06;100.00;53851.88;10458951;28;20063;-80
2023/02/10 05:38:26;;;;;;;0.00;0.00;;;;;;;-145.06;100.00;53847.84;10465394;28;20033;-80
2023/02/10 05:43:26;;;;;;;0.00;0.00;;;;;;;-145.06;100.00;53831.63;10449468;28;20028;-79
2023/02/10 05:48:27;;;;;;;0.00;0.00;;;;;;;-145.06;100.00;53853.91;10464804;28;20665;-79
2023/02/10 05:53:27;;;;;;;0.00;0.00;;;;;;;-145.06;100.00;53841.75;10473370;22;20053;-82
2023/02/10 05:58:27;;;;;;;0.00;0.00;;;;;;;-145.06;100.00;53870.09;10486370;28;20430;-81
2023/02/10 06:03:28;;;;;;;0.00;0.00;;;;;;;-145.06;100.00;53855.94;10481369;28;20279;-82
2023/02/10 06:08:28;;;;;;;0.08;0.08;;;;;;;-145.06;100.00;53849.84;10494252;28;20032;-81
2023/02/10 06:13:29;;;;;;;0.00;0.00;;;;;;;-145.06;100.00;53845.81;10489475;28;20083;-81
2023/02/10 06:18:31;;;;;;;0.00;0.00;;;;;;;-145.06;100.00;53851.88;10482388;28;20278;-82
2023/02/10 06:23:31;;;;;;;0.00;0.00;;;;;;;-145.06;100.00;53876.19;10489402;28;20024;-82
2023/02/10 06:28:31;;;;;;;0.00;0.00;;;;;;;-145.06;100.00;53837.72;10487077;28;20025;-82
2023/02/10 06:33:33;;;;;;;0.00;0.00;;;;;;;-145.06;100.00;53876.19;10491197;28;20067;-83
2023/02/10 06:38:35;;;;;;;0.00;0.00;;;;;;;-145.06;100.00;53890.38;10495634;28;20037;-82
2023/02/10 06:43:35;;;;;;;0.00;0.00;;;;;;;-145.06;100.00;53870.09;10488140;28;20027;-83
2023/02/10 06:48:36;;;;;;;0.00;0.00;;;;;;;-145.06;100.00;53857.97;10494379;28;20032;-83
2023/02/10 06:53:36;;;;;;;0.00;0.00;;;;;;;-145.06;100.00;53855.94;10481200;28;20269;-83
2023/02/10 06:58:37;;;;;;;0.00;0.00;;;;;;;-145.06;100.00;53866.06;10489837;28;20021;-82
2023/02/10 07:03:38;;;;;;;0.00;0.00;;;;;;;-145.06;100.00;53855.94;10496639;28;20486;-83
2023/02/10 07:08:39;;;;;;;0.00;0.00;;;;;;;-145.06;100.00;53855.94;10486688;28;20066;-83
2023/02/10 07:13:39;;;;;;;0.00;0.00;;;;;;;-145.06;100.00;53868.09;10493547;28;20495;-83
2023/02/10 07:18:40;;;;;;;0.00;0.00;;;;;;;-145.06;100.00;53845.81;10495156;28;20391;-83
2023/02/10 07:23:40;;;;;;;0.00;0.00;;;;;;;-145.06;100.00;53843.78;10485242;28;20274;-83
2023/02/10 07:28:41;;;;;;;0.00;0.00;;;;;;;-145.06;100.00;53839.72;10496692;28;20020;-82
2023/02/10 07:33:41;;;;;;;0.00;0.00;;;;;;;-145.06;100.00;53847.84;10491592;28;20492;-83
2023/02/10 07:38:41;;;;;;;0.00;0.00;;;;;;;-145.06;100.00;53841.75;10497422;28;20113;-82
2023/02/10 07:43:42;;;;;;;0.00;0.00;;;;;;;-145.06;100.00;53819.47;10492763;28;20033;-82
2023/02/10 07:48:42;;;;;;;0.00;0.00;;;;;;;-145.06;100.00;53872.13;10493135;28;20417;-82
2023/02/10 07:53:42;;;;;;;0.00;0.00;;;;;;;-145.06;100.00;53845.81;10498086;28;20037;-82
2023/02/10 07:58:42;;;;;;;0.00;0.00;;;;;;;-145.06;100.00;53815.44;10503415;28;20375;-81
2023/02/10 08:03:43;;;;;;;0.00;0.00;;;;;;;-145.06;100.00;53851.88;10491403;28;20780;-82
2023/02/10 08:08:43;;;;;;;0.00;0.00;;;;;;;-145.06;100.00;53829.59;10500036;28;20040;-83
2023/02/10 08:13:45;;;;;;;0.00;0.00;;;;;;;-145.06;100.00;53813.41;10492751;28;20039;-83
2023/02/10 08:18:45;;;;;;;0.00;0.00;;;;;;;-145.06;100.00;53799.22;10489839;28;20020;-83
2023/02/10 08:23:46;;;;;;;0.00;0.00;;;;;;;-145.06;100.00;53829.59;10501602;28;20024;-83
2023/02/10 08:28:46;;;;;;;0.00;0.00;;;;;;;-145.06;100.00;53829.59;10500993;28;20395;-83
2023/02/10 08:33:47;;;;;;;0.00;0.00;;;;;;;-145.06;100.00;53839.72;10493646;28;20029;-83
2023/02/10 08:38:48;;;;;;;0.00;0.00;;;;;;;-145.06;100.00;53868.09;10500639;28;20032;-82
2023/02/10 08:43:49;;;;;;;0.00;0.00;;;;;;;-145.06;100.00;53833.66;10489742;28;20036;-83
2023/02/10 08:48:49;;;;;;;0.00;0.00;;;;;;;-145.06;100.00;53831.63;10494582;28;20024;-82
2023/02/10 08:53:49;;;;;;;0.05;0.05;;;;;;;-145.06;100.00;53857.97;10527439;28;20448;-83
2023/02/10 08:58:50;;;;;;;0.00;0.00;;;;;;;-145.06;100.00;53851.88;10532270;28;20025;-82
2023/02/10 09:03:50;;;;;;;0.00;0.00;;;;;;;-145.06;100.00;53868.09;10517834;28;20028;-83
2023/02/10 09:08:52;;;;;;;0.00;0.00;;;;;;;-145.06;100.00;53835.69;10521891;28;20123;-83
2023/02/10 09:13:53;;;;;;;0.00;0.00;;;;;;;-145.06;100.00;53864.03;10513341;28;20028;-82
2023/02/10 09:18:53;;;;;;;0.00;0.00;;;;;;;-145.06;100.00;53817.47;10539634;28;20108;-83
2023/02/10 09:23:53;;;;;;;0.00;0.00;;;;;;;-145.06;100.00;53821.50;10536090;28;20032;-83
2023/02/10 09:28:54;;;;;;;0.00;0.00;;;;;;;-145.06;100.00;53833.66;10533930;28;20020;-83
2023/02/10 09:33:54;;;;;;;0.00;0.00;;;;;;;-145.06;100.00;53855.94;10539753;28;20099;-83
2023/02/10 09:38:56;;;;;;;0.00;0.00;;;;;;;-145.06;100.00;53835.69;10532832;28;20111;-83
2023/02/10 09:44:15;;;;;;;0.00;0.00;;;;;;;-145.06;100.00;53847.84;10532551;28;20031;-82
2023/02/10 09:49:32;;;;;;;0.00;0.00;;;;;;;-145.06;100.00;53831.63;10522125;28;20391;-82
2023/02/10 09:54:33;;;;;;;0.00;0.00;;;;;;;-145.06;100.00;53831.63;10507294;28;20064;-82
2023/02/10 09:59:36;;;;;;;0.00;0.00;;;;;;;-145.06;100.00;53843.78;10540139;28;20063;-83
2023/02/10 10:04:38;;;;;;;0.00;0.00;;;;;;;-145.06;100.00;53849.84;10513355;28;20417;-83
2023/02/10 10:09:45;;;;;;;0.00;0.00;;;;;;;-145.06;100.00;53835.69;10532919;28;20035;-82
2023/02/10 10:14:47;;;;;;;0.00;0.00;;;;;;;-145.06;100.00;53837.72;10517685;28;20031;-82
2023/02/10 10:20:20;;;;;;;0.00;0.00;;;;;;;-145.06;100.00;53831.63;10530888;28;20387;-83
2023/02/10 10:25:45;;;;;;;0.00;0.00;;;;;;;-145.06;100.00;53807.31;10485973;28;20032;-83
2023/02/10 10:31:00;;;;;;;0.10;0.10;;;;;;;-145.06;100.00;53847.84;10520718;28;20057;-82
2023/02/10 10:36:02;;;;;;;0.00;0.00;;;;;;;-145.06;100.00;53845.81;10508812;28;20118;-83
2023/02/10 10:41:07;;;;;;;0.00;0.00;;;;;;;-145.06;100.00;53821.50;10517222;28;20059;-82
2023/02/10 10:46:23;;;;;;;0.00;0.00;;;;;;;-145.06;100.00;53811.38;10510705;28;20031;-83
2023/02/10 10:51:25;;;;;;;0.00;0.00;;;;;;;-145.06;100.00;53829.59;10515417;28;20052;-83
2023/02/10 10:56:50;;;;;;;0.00;0.00;;;;;;;-145.06;100.00;53791.13;10518679;28;20036;-83
2023/02/10 11:01:52;;;;;;;0.00;0.00;;;;;;;-145.06;100.00;53831.63;10526525;28;20036;-82
2023/02/10 11:06:55;;;;;;;0.00;0.00;;;;;;;-145.06;100.00;53868.09;10515056;28;20036;-83
2023/02/10 11:12:05;;;;;;;0.10;0.10;;;;;;;-145.06;100.00;53831.63;10511758;28;20073;-83
2023/02/10 11:17:29;;;;;;;0.00;0.00;;;;;;;-145.06;100.00;53805.31;10523592;28;20456;-83
2023/02/10 11:22:29;;;;;;;0.00;0.00;;;;;;;-145.06;100.00;53795.19;10522280;28;20074;-83
2023/02/10 11:27:30;;;;;;;0.00;0.00;;;;;;;-145.06;100.00;53795.19;10525636;28;20056;-83
2023/02/10 11:32:35;;;;;;;0.00;0.00;;;;;;;-145.06;100.00;53811.38;10529616;28;20094;-83
2023/02/10 11:37:38;;;;;;;0.00;0.00;;;;;;;-145.06;100.00;53827.59;10518781;28;20314;-83
2023/02/10 11:42:38;;;;;;;0.00;0.00;;;;;;;-145.06;100.00;53815.44;10511976;28;20058;-83
2023/02/10 11:47:38;;;;;;;0.00;0.00;;;;;;;-145.06;100.00;53803.28;10536278;28;20059;-83
2023/02/10 11:52:39;;;;;;;0.07;0.07;;;;;;;-145.06;100.00;53819.47;10500795;22;20320;-82
2023/02/10 12:03:32;;;;;;;0.10;0.10;;;;;;;-145.06;100.00;53833.66;10458370;28;20342;-81
2023/02/10 12:08:56;;;;;;;0.00;0.00;;;;;;;-145.06;100.00;53789.09;10449029;28;20033;-83
2023/02/10 12:14:15;;;;;;;0.10;0.10;;;;;;;-145.06;100.00;53823.53;10457491;28;20263;-81
2023/02/10 12:19:46;;;;;;;0.10;0.10;;;;;;;-145.06;100.00;53831.63;10456671;28;20371;-82
2023/02/10 12:25:09;;;;;;;0.00;0.00;;;;;;;-145.06;100.00;53791.13;10458920;28;20040;-83
2023/02/10 12:30:51;;;;;;;0.00;0.00;;;;;;;-145.06;100.00;53821.50;10464246;28;20577;-83
2023/02/10 12:36:31;;;;;;;0.00;0.00;;;;;;;-145.06;100.00;53795.19;10416796;28;20056;-83
2023/02/10 12:42:06;;;;;;;0.00;0.00;;;;;;;-145.06;100.00;53819.47;10441621;28;20045;-82
2023/02/10 12:47:21;;;;;;;0.00;0.00;;;;;;;-145.06;100.00;53827.59;10457305;28;20037;-83
2023/02/10 12:52:34;;;;;;;0.00;0.00;;;;;;;-145.06;100.00;53819.47;10461884;28;20543;-82
2023/02/10 12:57:45;;;;;;;0.00;0.00;;;;;;;-145.06;100.00;53835.69;10457029;28;20025;-83
2023/02/10 13:02:51;;;;;;;0.00;0.00;;;;;;;-145.06;100.00;53789.09;10471477;28;20052;-83
2023/02/10 13:08:00;;;;;;;0.00;0.00;;;;;;;-145.06;100.00;53825.56;10470929;28;20025;-83
2023/02/10 13:13:13;;;;;;;0.00;0.00;;;;;;;-145.06;100.00;53819.47;10465360;28;20033;-83
2023/02/10 13:18:19;;;;;;;0.00;0.00;;;;;;;-145.06;100.00;53795.19;10463356;28;20052;-82
2023/02/10 13:23:29;;;;;;;0.00;0.00;;;;;;;-145.06;100.00;53803.28;10463336;28;20126;-83
2023/02/10 13:28:35;;;;;;;0.00;0.00;;;;;;;-145.06;100.00;53783.03;10456695;28;20104;-82
2023/02/10 13:33:43;;;;;;;0.00;0.00;;;;;;;-145.06;100.00;53795.19;10462660;28;20029;-81
2023/02/10 13:38:44;;;;;;;0.00;0.00;;;;;;;-145.06;100.00;53823.53;10459656;28;20043;-82
2023/02/10 13:43:53;;;;;;;0.10;0.10;;;;;;;-145.06;100.00;53857.97;10459152;28;20120;-81
2023/02/10 13:48:57;;;;;;;0.00;0.00;;;;;;;-145.06;100.00;53803.28;10467526;28;20227;-82
2023/02/10 13:53:58;;;;;;;0.10;0.10;;;;;;;-145.06;100.00;53801.25;10445513;28;20033;-83
2023/02/10 13:59:03;;;;;;;0.00;0.00;;;;;;;-145.06;100.00;53851.88;10467626;28;20231;-81
2023/02/10 14:04:06;;;;;;;0.10;0.10;;;;;;;-145.06;100.00;53841.75;10466458;28;20025;-82
2023/02/10 14:09:31;;;;;;;0.00;0.00;;;;;;;-145.06;100.00;53797.22;10453286;28;20313;-84
2023/02/10 14:14:36;;;;;;;0.00;0.00;;;;;;;-145.06;100.00;53827.59;10461131;28;20094;-83
2023/02/10 14:19:39;;;;;;;0.08;0.08;;;;;;;-145.06;100.00;53819.47;10461813;28;20029;-83
2023/02/10 14:24:43;;;;;;;0.00;0.00;;;;;;;-145.06;100.00;53801.25;10453776;28;20037;-84
2023/02/10 14:30:04;;;;;;;;;;;;;;;-145.06;100.00;53807.31;10464204;28;20490;-84
2023/02/10 14:35:18;;;;;;;0.10;0.10;;;;;;;-145.06;100.00;53805.31;10459089;28;19909;-84
2023/02/10 14:40:24;;;;;;;0.00;0.00;;;;;;;-145.06;100.00;53862.00;10463030;28;20040;-82
2023/02/10 14:45:26;;;;;;;0.03;0.03;;;;;;;-145.06;100.00;53813.41;10459232;28;20071;-84
2023/02/10 14:50:30;;;;;;;0.00;0.00;;;;;;;-145.06;100.00;53817.47;10454423;28;20028;-83
2023/02/10 14:55:40;;;;;;;0.00;0.00;;;;;;;-145.06;100.00;53823.53;10462062;28;20036;-83
2023/02/10 15:00:53;;;;;;;0.00;0.00;;;;;;;-145.06;100.00;53783.03;10458204;28;20436;-83
2023/02/10 15:05:59;;;;;;;0.00;0.00;;;;;;;-145.06;100.00;53833.66;10460919;28;20443;-86
2023/02/10 15:11:02;;;;;;;0.00;0.00;;;;;;;-145.06;100.00;53839.72;10461027;28;20033;-84
2023/02/10 15:16:05;;;;;;;0.00;0.00;;;;;;;-145.06;100.00;53813.41;10456749;28;20033;-84
2023/02/10 15:21:23;;;;;;;0.00;0.00;;;;;;;-145.06;100.00;53829.59;10459698;28;20036;-83
2023/02/10 15:26:28;;;;;;;0.10;0.10;;;;;;;-145.06;100.00;53813.41;10460204;28;20067;-84
2023/02/10 15:31:29;;;;;;;0.00;0.00;;;;;;;-145.06;100.00;53847.84;10457248;28;20029;-83
2023/02/10 15:36:34;;;;;;;0.00;0.00;;;;;;;-145.06;100.00;53766.81;10460459;28;20423;-83
2023/02/10 15:41:43;;;;;;;0.00;0.00;;;;;;;-145.06;100.00;53819.47;10462586;28;20029;-83
2023/02/10 15:46:45;;;;;;;0.00;0.00;;;;;;;-145.06;100.00;53839.72;10460554;28;20028;-84
2023/02/10 15:51:49;;;;;;;0.03;0.03;;;;;;;-145.06;100.00;53827.59;10466788;28;20116;-83
2023/02/10 15:56:55;;;;;;;0.00;0.00;;;;;;;-145.06;100.00;53835.69;10467622;28;20483;-84
2023/02/10 16:01:57;;;;;;;0.00;0.00;;;;;;;-145.06;100.00;53843.78;10467901;28;20024;-83
2023/02/10 16:06:59;;;;;;;0.00;0.00;;;;;;;-145.06;100.00;53839.72;10468494;28;20055;-83
2023/02/10 16:12:00;;;;;;;0.00;0.00;;;;;;;-145.06;100.00;53815.44;10471165;28;20063;-84
2023/02/10 16:17:01;;;;;;;0.00;0.00;;;;;;;-145.06;100.00;53823.53;10463957;28;20048;-84
2023/02/10 16:22:02;;;;;;;0.00;0.00;;;;;;;-145.06;100.00;53833.66;10468233;28;20039;-84
2023/02/10 16:27:02;;;;;;;0.00;0.00;;;;;;;-145.06;100.00;53870.09;10468742;28;20021;-83
2023/02/10 16:32:03;;;;;;;0.00;0.00;;;;;;;-145.06;100.00;53837.72;10463738;28;20565;-83
2023/02/10 16:37:03;;;;;;;0.00;0.00;;;;;;;-145.06;100.00;53809.34;10470880;28;20033;-83
2023/02/10 16:42:04;;;;;;;0.00;0.00;;;;;;;-145.06;100.00;53847.84;10467379;28;20482;-82
2023/02/10 16:47:04;;;;;;;0.00;0.00;;;;;;;-145.06;100.00;53819.47;10470940;28;20036;-84
2023/02/10 16:52:04;;;;;;;0.00;0.00;;;;;;;-145.06;100.00;53853.91;10469870;28;20110;-83
2023/02/10 16:57:06;;;;;;;0.00;0.00;;;;;;;-145.06;100.00;53874.16;10466145;28;20040;-83
2023/02/10 17:02:06;;;;;;;0.00;0.00;;;;;;;-145.06;100.00;53827.59;10468173;28;20032;-83
2023/02/10 17:07:06;;;;;;;0.10;0.10;;;;;;;-145.06;100.00;53839.72;10470297;28;20017;-83
2023/02/10 17:12:06;;;;;;;0.00;0.00;;;;;;;-145.06;100.00;53839.72;10467919;28;20051;-83
2023/02/10 17:17:07;;;;;;;0.00;0.00;;;;;;;-145.06;100.00;53878.22;10467979;28;20087;-83
2023/02/10 17:22:07;;;;;;;0.00;0.00;;;;;;;-145.06;100.00;53831.63;10470706;28;20266;-83
2023/02/10 17:27:10;;;;;;;0.00;0.00;;;;;;;-145.06;100.00;53797.22;10459735;28;20399;-82
2023/02/10 17:32:11;;;;;;;0.00;0.00;;;;;;;-145.06;100.00;53817.47;10468458;28;20040;-83
2023/02/10 17:37:11;;;;;;;0.00;0.00;;;;;;;-145.06;100.00;53803.28;10468871;28;20033;-83
2023/02/10 17:42:11;;;;;;;0.00;0.00;;;;;;;-145.06;100.00;53862.00;10459846;28;20033;-81
2023/02/10 17:47:12;;;;;;;0.10;0.10;;;;;;;-145.06;100.00;53853.91;10468449;28;20055;-82
2023/02/10 17:52:12;;;;;;;0.00;0.00;;;;;;;-145.06;100.00;53835.69;10463630;28;20120;-82
2023/02/10 17:57:14;;;;;;;0.00;0.00;;;;;;;-145.06;100.00;53880.22;10463073;28;20124;-82
2023/02/10 18:02:14;;;;;;;0.00;0.00;;;;;;;-145.06;100.00;53829.59;10468453;28;20036;-83
2023/02/10 18:07:18;;;;;;;0.00;0.00;;;;;;;-145.06;100.00;53831.63;10461924;28;20035;-85
2023/02/10 18:12:18;;;;;;;0.00;0.00;;;;;;;-145.06;100.00;53823.53;10473655;28;20290;-84
2023/02/10 18:17:20;;;;;;;0.00;0.00;;;;;;;-145.06;100.00;53837.72;10465038;28;20044;-84
2023/02/10 18:22:20;;;;;;;0.00;0.00;;;;;;;-145.06;100.00;53851.88;10463447;28;20033;-84
2023/02/10 18:27:21;;;;;;;0.00;0.00;;;;;;;-145.06;100.00;53831.63;10438211;22;20057;-81
2023/02/10 18:32:22;;;;;;;0.00;0.00;;;;;;;-145.06;100.00;53827.59;10409005;28;20272;-81
2023/02/10 18:37:22;;;;;;;0.00;0.00;;;;;;;-145.06;100.00;53868.09;10396061;28;20022;-81
2023/02/10 18:42:22;;;;;;;0.00;0.00;;;;;;;-145.06;100.00;53855.94;10402549;28;20047;-81
2023/02/10 18:47:23;;;;;;;0.00;0.00;;;;;;;-145.06;100.00;53831.63;10391554;28;20029;-82
2023/02/10 18:52:23;;;;;;;0.00;0.00;;;;;;;-145.06;100.00;53827.59;10380271;28;20444;-82
2023/02/10 18:57:23;;;;;;;0.00;0.00;;;;;;;-145.06;100.00;53862.00;10387933;28;20025;-82
2023/02/10 19:02:24;;;;;;;0.00;0.00;;;;;;;-145.06;100.00;53843.78;10372232;28;20116;-82
2023/02/10 19:07:25;;;;;;;0.00;0.00;;;;;;;-145.06;100.00;53837.72;10396248;28;20536;-81
2023/02/10 19:12:25;;;;;;;0.00;0.00;;;;;;;-145.06;100.00;53841.75;10389040;28;20480;-81
2023/02/10 19:17:25;;;;;;;0.00;0.00;;;;;;;-145.06;100.00;53817.47;10382411;28;20029;-82
2023/02/10 19:22:26;;;;;;;0.00;0.00;;;;;;;-145.06;100.00;53815.44;10386212;28;20099;-81
2023/02/10 19:27:26;;;;;;;0.00;0.00;;;;;;;-145.06;100.00;53851.88;10381924;28;20275;-81
2023/02/10 19:32:26;;;;;;;0.00;0.00;;;;;;;-145.06;100.00;53811.38;10406245;28;20060;-81
2023/02/10 19:37:26;;;;;;;0.00;0.00;;;;;;;-145.06;100.00;53823.53;10405226;28;20029;-81
2023/02/10 19:42:27;;;;;;;0.00;0.00;;;;;;;-145.06;100.00;53853.91;10402306;28;20033;-81
2023/02/10 19:47:27;;;;;;;0.00;0.00;;;;;;;-145.06;100.00;53817.47;10399690;28;20088;-81
2023/02/10 19:52:27;;;;;;;0.00;0.00;;;;;;;-145.06;100.00;53872.13;10386339;28;20021;-81
2023/02/10 19:57:28;;;;;;;0.00;0.00;;;;;;;-145.06;100.00;53791.13;10405829;28;20022;-81
2023/02/10 20:02:28;;;;;;;0.00;0.00;;;;;;;-145.06;100.00;53843.78;10416986;28;20113;-82
2023/02/10 20:07:28;;;;;;;0.00;0.00;;;;;;;-145.06;100.00;53823.53;10389861;28;20052;-82
2023/02/10 20:12:30;;;;;;;0.00;0.00;;;;;;;-145.06;100.00;53833.66;10407511;28;20032;-82
2023/02/10 20:17:30;;;;;;;0.00;0.00;;;;;;;-145.06;100.00;53855.94;10406011;28;20029;-82
2023/02/10 20:22:30;;;;;;;0.00;0.00;;;;;;;-145.06;100.00;53845.81;10395196;28;20113;-82
2023/02/10 20:27:31;;;;;;;0.00;0.00;;;;;;;-145.06;100.00;53815.44;10396100;28;20030;-81
2023/02/10 20:32:31;;;;;;;0.00;0.00;;;;;;;-145.06;100.00;53817.47;10413991;28;20022;-82
2023/02/10 20:37:31;;;;;;;0.00;0.00;;;;;;;-145.06;100.00;53819.47;10397264;28;20029;-82
2023/02/10 20:42:31;;;;;;;0.00;0.00;;;;;;;-145.06;100.00;53821.50;10404561;28;20355;-82
2023/02/10 20:47:32;;;;;;;0.00;0.00;;;;;;;-145.06;100.00;53809.34;10370120;28;20026;-81
2023/02/10 20:52:34;;;;;;;0.00;0.00;;;;;;;-145.06;100.00;53868.09;10385089;28;20037;-81
2023/02/10 20:57:34;;;;;;;0.00;0.00;;;;;;;-145.06;100.00;53839.72;10394175;28;20060;-81
2023/02/10 21:02:34;;;;;;;0.00;0.00;;;;;;;-145.06;100.00;53880.22;10388659;28;20065;-81
2023/02/10 21:07:35;;;;;;;0.00;0.00;;;;;;;-145.06;100.00;53807.31;10394076;28;20163;-81
2023/02/10 21:12:35;;;;;;;0.00;0.00;;;;;;;-145.06;100.00;53851.88;10395201;28;20029;-82
2023/02/10 21:17:35;;;;;;;0.00;0.00;;;;;;;-145.06;100.00;53843.78;10400358;28;20518;-82
2023/02/10 21:22:36;;;;;;;0.00;0.00;;;;;;;-145.06;100.00;53847.84;10386103;28;20034;-82
2023/02/10 21:27:38;;;;;;;0.00;0.00;;;;;;;-145.06;100.00;53876.19;10400761;28;20092;-82
2023/02/10 21:32:39;;;;;;;0.00;0.00;;;;;;;-145.06;100.00;53870.09;10409846;28;20120;-82
2023/02/10 21:37:39;;;;;;;0.00;0.00;;;;;;;-145.06;100.00;53825.56;10360291;28;20084;-82
2023/02/10 21:42:40;;;;;;;0.00;0.00;;;;;;;-145.06;100.00;53864.03;10385166;28;20060;-82
2023/02/10 21:47:40;;;;;;;0.00;0.00;;;;;;;-145.06;100.00;53888.34;10378531;28;20041;-81
2023/02/10 21:52:41;;;;;;;0.00;0.00;;;;;;;-145.06;100.00;53872.13;10364696;28;20450;-82
2023/02/10 21:57:41;;;;;;;0.00;0.00;;;;;;;-145.06;100.00;53815.44;10389087;28;20362;-81
2023/02/10 22:02:42;;;;;;;0.00;0.00;;;;;;;-145.06;100.00;53868.09;10359244;28;20687;-82
2023/02/10 22:07:42;;;;;;;0.00;0.00;;;;;;;-145.06;100.00;53878.22;10397270;28;20044;-82
2023/02/10 22:12:42;;;;;;;0.00;0.00;;;;;;;-145.06;100.00;53835.69;10387044;28;20117;-81
2023/02/10 22:17:43;;;;;;;0.00;0.00;;;;;;;-145.06;100.00;53819.47;10393854;28;20061;-81
2023/02/10 22:22:43;;;;;;;0.00;0.00;;;;;;;-145.06;100.00;53857.97;10366440;28;20065;-81
2023/02/10 22:27:44;;;;;;;0.00;0.00;;;;;;;-145.06;100.00;53835.69;10374917;28;20269;-81
2023/02/10 22:32:44;;;;;;;0.00;0.00;;;;;;;-145.06;100.00;53833.66;10386473;28;20030;-81
2023/02/10 22:37:48;;;;;;;0.00;0.00;;;;;;;-145.06;100.00;53843.78;10386505;28;20033;-82
2023/02/10 22:42:48;;;;;;;0.00;0.00;;;;;;;-145.06;100.00;53837.72;10395608;28;20065;-81
2023/02/10 22:47:51;;;;;;;0.00;0.00;;;;;;;-145.06;100.00;53819.47;10389939;28;20076;-82
2023/02/10 22:52:51;;;;;;;0.00;0.00;;;;;;;-145.06;100.00;53823.53;10382591;28;20117;-82